Time;durP1;ratioP1;P1;durP2;ratioP2;P2;SDS_P1;SDS_P2;PMS_P1;PMS_P2;Temp;Humidity;BMP_temperature;BMP_pressure;BME280_temperature;BME280_humidity;BME280_pressure;Samples;Min_cycle;Max_cycle;Signal;HPM_P1;HPM_P2
2022/07/05 00:01:18;;;;;;;4.03;3.65;;;;;;;26.88;44.28;99592.44;1728680;80;21507;-61
2022/07/05 00:03:45;;;;;;;4.60;4.20;;;;;;;26.81;44.58;99594.13;1721295;80;21924;-61
2022/07/05 00:06:12;;;;;;;4.20;3.80;;;;;;;26.83;44.69;99597.50;1717554;80;21085;-61
2022/07/05 00:08:39;;;;;;;5.50;3.83;;;;;;;26.82;44.63;99599.02;1680454;84;21448;-61
2022/07/05 00:11:06;;;;;;;5.80;3.77;;;;;;;26.81;44.70;99596.83;1727096;80;21161;-61
2022/07/05 00:13:33;;;;;;;4.60;4.10;;;;;;;26.83;44.65;99600.72;1732594;80;21472;-61
2022/07/05 00:16:01;;;;;;;5.28;4.10;;;;;;;26.75;44.70;99599.71;1692493;82;21515;-61
2022/07/05 00:18:28;;;;;;;5.78;4.25;;;;;;;26.72;44.91;99601.91;1715923;80;21570;-62
2022/07/05 00:20:55;;;;;;;4.95;4.12;;;;;;;26.70;44.82;99605.28;1731888;80;20947;-62
2022/07/05 00:23:21;;;;;;;5.95;4.12;;;;;;;26.61;45.00;99604.44;1691720;82;21507;-61
2022/07/05 00:25:48;;;;;;;5.65;4.05;;;;;;;26.51;45.30;99600.55;1727428;80;21475;-62
2022/07/05 00:28:15;;;;;;;5.55;3.98;;;;;;;26.47;45.73;99604.59;1684794;83;21899;-61
2022/07/05 00:30:42;;;;;;;4.37;3.40;;;;;;;26.54;45.98;99607.44;1727719;80;21022;-60
2022/07/05 00:33:09;;;;;;;4.25;3.80;;;;;;;26.50;45.95;99610.14;1713346;80;21558;-61
2022/07/05 00:35:36;;;;;;;4.58;3.70;;;;;;;26.55;46.05;99607.79;1690669;83;21553;-61
2022/07/05 00:38:02;;;;;;;4.90;4.35;;;;;;;26.51;46.15;99609.98;1726557;80;21571;-61
2022/07/05 00:40:29;;;;;;;5.25;4.37;;;;;;;26.42;46.29;99605.09;1733452;80;21918;-61
2022/07/05 00:42:55;;;;;;;7.37;4.50;;;;;;;26.44;46.24;99609.48;1699699;83;21462;-62
2022/07/05 00:45:22;;;;;;;5.00;4.28;;;;;;;26.34;46.34;99609.14;1683021;83;21555;-61
2022/07/05 00:47:49;;;;;;;5.70;4.05;;;;;;;26.33;46.43;99607.95;1680725;83;21524;-61
2022/07/05 00:50:15;;;;;;;5.85;5.28;;;;;;;26.30;46.71;99610.49;1688126;84;22795;-61
2022/07/05 00:52:43;;;;;;;7.15;4.15;;;;;;;26.32;46.76;99613.03;1680628;84;22045;-62
2022/07/05 00:55:10;;;;;;;6.40;4.87;;;;;;;26.39;46.78;99621.62;1678193;84;21053;-61
2022/07/05 00:57:36;;;;;;;7.22;4.78;;;;;;;26.41;46.71;99618.24;1680525;83;21112;-61
2022/07/05 01:00:05;;;;;;;5.30;4.80;;;;;;;26.40;46.73;99621.10;1687131;83;21556;-61
2022/07/05 01:02:32;;;;;;;5.08;4.58;;;;;;;26.35;46.72;99624.80;1693827;82;21562;-61
2022/07/05 01:05:00;;;;;;;6.87;4.85;;;;;;;26.41;46.51;99622.28;1692583;83;22037;-61
2022/07/05 01:07:28;;;;;;;6.55;5.22;;;;;;;26.40;46.52;99621.10;1689546;83;21448;-61
2022/07/05 01:09:57;;;;;;;6.17;4.83;;;;;;;26.36;46.65;99613.86;1701074;83;21448;-61
2022/07/05 01:12:24;;;;;;;7.85;4.72;;;;;;;26.38;46.78;99615.88;1689689;83;21531;-61
2022/07/05 01:14:50;;;;;;;5.20;4.60;;;;;;;26.45;46.80;99618.75;1691451;83;21564;-62
2022/07/05 01:17:18;;;;;;;6.75;4.08;;;;;;;26.41;46.98;99616.89;1700267;82;21887;-61
2022/07/05 01:19:44;;;;;;;5.45;4.95;;;;;;;26.40;46.96;99614.36;1696850;83;21476;-61
2022/07/05 01:22:19;;;;;;;4.90;4.50;;;;;;;26.39;46.94;99609.97;1694259;82;21507;-61
2022/07/05 01:24:47;;;;;;;5.25;4.80;;;;;;;26.34;46.90;99610.48;1692100;83;21564;-62
2022/07/05 01:27:14;;;;;;;4.83;4.30;;;;;;;26.31;46.87;99610.81;1694737;83;21595;-61
2022/07/05 01:29:42;;;;;;;9.53;5.00;;;;;;;26.28;46.90;99617.91;1689990;82;21836;-61
2022/07/05 01:32:09;;;;;;;5.62;4.17;;;;;;;26.20;47.15;99620.09;1686182;82;21598;-61
2022/07/05 01:34:39;;;;;;;5.97;4.67;;;;;;;26.29;47.09;99614.19;1685642;83;21511;-60
2022/07/05 01:37:07;;;;;;;6.90;4.42;;;;;;;26.29;47.29;99615.53;1697586;83;21600;-61
2022/07/05 01:39:33;;;;;;;4.47;4.08;;;;;;;26.28;47.68;99616.56;1660437;83;21518;-61
2022/07/05 01:42:01;;;;;;;6.40;4.40;;;;;;;26.29;47.67;99618.23;1687286;83;21852;-61
2022/07/05 01:44:30;;;;;;;4.58;4.20;;;;;;;26.25;47.73;99615.54;1678595;83;21429;-61
2022/07/05 01:47:04;;;;;;;5.30;4.22;;;;;;;26.27;47.60;99618.07;1666675;84;21467;-61
2022/07/05 01:49:40;;;;;;;6.80;4.40;;;;;;;26.24;47.48;99613.87;1680710;83;21606;-61
2022/07/05 01:52:12;;;;;;;6.00;4.40;;;;;;;26.20;47.40;99613.84;1684095;83;21589;-61
2022/07/05 01:54:39;;;;;;;5.30;4.80;;;;;;;26.23;47.09;99618.91;1677655;84;21776;-61
2022/07/05 01:57:06;;;;;;;5.08;4.67;;;;;;;26.21;47.07;99619.58;1677588;83;21543;-60
2022/07/05 01:59:34;;;;;;;6.53;4.47;;;;;;;26.17;47.24;99624.46;1680152;83;20995;-61
2022/07/05 02:02:02;;;;;;;5.45;4.20;;;;;;;26.14;47.56;99617.21;1687214;83;21484;-61
2022/07/05 02:04:29;;;;;;;4.92;4.35;;;;;;;26.13;47.82;99621.77;1677555;83;21014;-62
2022/07/05 02:06:56;;;;;;;4.78;4.28;;;;;;;26.15;47.67;99627.83;1678690;83;21819;-61
2022/07/05 02:09:23;;;;;;;4.20;3.90;;;;;;;26.15;47.64;99626.48;1683163;83;21584;-61
2022/07/05 02:11:51;;;;;;;;;;;;;;;26.14;47.48;99623.95;1683613;83;21464;-62
2022/07/05 02:14:18;;;;;;;5.90;4.53;;;;;;;26.12;47.87;99622.77;1656484;84;20516;-61
2022/07/05 02:16:45;;;;;;;4.78;4.33;;;;;;;26.08;47.50;99621.92;1677445;83;21512;-61
2022/07/05 02:19:12;;;;;;;4.67;4.28;;;;;;;26.00;47.68;99623.59;1680613;83;21894;-61
2022/07/05 02:21:40;;;;;;;8.23;4.55;;;;;;;26.00;48.00;99626.29;1683836;83;21532;-61
2022/07/05 02:24:09;;;;;;;7.37;4.05;;;;;;;26.00;48.24;99628.98;1688476;83;21503;-61
2022/07/05 02:26:38;;;;;;;4.97;4.58;;;;;;;26.05;48.38;99633.02;1675293;83;20979;-60
2022/07/05 02:29:06;;;;;;;4.47;4.05;;;;;;;26.10;48.61;99627.98;1685607;83;21976;-61
2022/07/05 02:31:33;;;;;;;5.72;4.55;;;;;;;26.08;48.68;99625.97;1677621;83;24141;-61
2022/07/05 02:34:01;;;;;;;6.87;4.67;;;;;;;26.07;48.64;99626.97;1685403;84;20967;-61
2022/07/05 02:36:28;;;;;;;4.78;4.37;;;;;;;26.07;48.59;99621.58;1733379;80;21520;-61
2022/07/05 02:38:54;;;;;;;5.40;4.17;;;;;;;26.08;48.50;99623.27;1697551;82;21466;-60
2022/07/05 02:41:21;;;;;;;7.40;4.57;;;;;;;26.08;48.85;99624.11;1727006;80;21148;-61
2022/07/05 02:43:50;;;;;;;5.65;4.08;;;;;;;26.09;49.12;99626.29;1685172;82;21896;-61
2022/07/05 02:46:17;;;;;;;6.83;4.35;;;;;;;26.17;49.36;99632.55;1723147;80;21500;-61
2022/07/05 02:48:44;;;;;;;6.97;4.50;;;;;;;26.19;49.42;99632.38;1695346;82;21514;-61
2022/07/05 02:51:11;;;;;;;4.83;4.30;;;;;;;26.15;49.52;99633.22;1730420;80;21443;-61
2022/07/05 02:53:39;;;;;;;4.72;4.33;;;;;;;26.09;49.92;99639.28;1692213;82;21446;-61
2022/07/05 02:56:07;;;;;;;5.50;4.92;;;;;;;26.07;49.80;99640.44;1722444;80;21949;-61
2022/07/05 02:58:33;;;;;;;6.30;4.33;;;;;;;26.06;49.81;99639.59;1692227;82;21511;-61
2022/07/05 03:01:00;;;;;;;5.55;4.70;;;;;;;26.07;49.87;99643.99;1724776;80;21554;-62
2022/07/05 03:03:28;;;;;;;5.22;4.50;;;;;;;26.07;50.14;99641.30;1728667;80;20959;-61
2022/07/05 03:05:55;;;;;;;5.30;4.80;;;;;;;26.09;50.18;99641.97;1721800;80;20982;-62
2022/07/05 03:08:23;;;;;;;5.12;3.90;;;;;;;26.12;50.27;99644.31;1724887;80;21867;-61
2022/07/05 03:10:50;;;;;;;7.92;5.40;;;;;;;26.17;50.16;99647.36;1687019;82;21487;-61
2022/07/05 03:13:17;;;;;;;6.80;4.60;;;;;;;26.13;50.40;99651.41;1723858;82;25762;-61
2022/07/05 03:15:44;;;;;;;7.22;5.22;;;;;;;26.31;49.91;99650.41;1721393;80;21531;-61
2022/07/05 03:18:12;;;;;;;8.08;5.58;;;;;;;26.18;50.44;99649.06;1725456;80;21670;-61
2022/07/05 03:20:39;;;;;;;7.87;6.05;;;;;;;26.45;49.89;99641.66;1693543;84;21894;-61
2022/07/05 03:23:06;;;;;;;10.60;6.17;;;;;;;26.52;49.86;99642.68;1729462;80;21546;-61
2022/07/05 03:25:36;;;;;;;10.63;5.97;;;;;;;26.56;49.64;99641.81;1721410;80;21440;-61
2022/07/05 03:28:04;;;;;;;6.75;6.05;;;;;;;26.66;49.36;99643.87;1688620;83;21668;-61
2022/07/05 03:30:31;;;;;;;8.88;5.78;;;;;;;26.71;49.14;99642.87;1730720;80;21664;-61
2022/07/05 03:32:58;;;;;;;6.65;5.50;;;;;;;26.74;49.11;99637.63;1694302;83;21580;-60
2022/07/05 03:35:26;;;;;;;7.78;5.55;;;;;;;26.78;49.26;99639.80;1720698;80;21006;-60
2022/07/05 03:37:53;;;;;;;7.87;5.55;;;;;;;26.87;49.00;99636.59;1665116;82;21530;-60
2022/07/05 03:40:20;;;;;;;6.35;5.35;;;;;;;26.90;48.64;99632.70;1728663;80;20995;-61
2022/07/05 03:42:47;;;;;;;5.47;4.63;;;;;;;26.96;48.59;99639.61;1722616;80;21421;-61
2022/07/05 03:45:14;;;;;;;7.33;5.03;;;;;;;27.03;48.54;99634.87;1722808;80;21756;-61
2022/07/05 03:47:41;;;;;;;5.72;5.17;;;;;;;26.93;48.81;99642.64;1682604;83;20951;-64
2022/07/05 03:50:09;;;;;;;5.92;5.22;;;;;;;26.96;48.81;99644.18;1692613;83;21545;-60
2022/07/05 03:52:36;;;;;;;7.28;5.03;;;;;;;27.00;48.78;99648.21;1727001;80;21553;-60
2022/07/05 03:55:05;;;;;;;5.15;4.75;;;;;;;26.95;48.59;99651.41;1732560;80;21592;-59
2022/07/05 03:57:32;;;;;;;5.40;5.00;;;;;;;26.92;48.90;99652.28;1693068;82;21895;-62
2022/07/05 03:59:59;;;;;;;6.25;5.65;;;;;;;26.95;49.04;99647.88;1722859;82;21471;-59
2022/07/05 04:02:26;;;;;;;5.83;5.42;;;;;;;27.11;48.82;99644.31;1696096;83;21519;-60
2022/07/05 04:04:53;;;;;;;5.95;5.35;;;;;;;27.22;48.50;99648.48;1722570;80;21554;-60
2022/07/05 04:07:21;;;;;;;5.75;5.35;;;;;;;27.25;48.24;99644.09;1686123;83;21486;-59
2022/07/05 04:09:47;;;;;;;12.18;5.35;;;;;;;27.26;48.13;99639.91;1725924;80;21417;-58
2022/07/05 04:12:14;;;;;;;7.30;5.97;;;;;;;27.25;48.13;99638.22;1687985;82;21660;-59
2022/07/05 04:14:43;;;;;;;7.47;5.90;;;;;;;27.22;48.34;99639.03;1722719;80;21432;-60
2022/07/05 04:17:10;;;;;;;6.20;5.35;;;;;;;27.21;48.63;99645.47;1733178;80;21543;-59
2022/07/05 04:19:37;;;;;;;6.35;5.67;;;;;;;27.25;48.81;99650.84;1689369;84;21089;-58
2022/07/05 04:22:04;;;;;;;6.65;6.05;;;;;;;27.22;48.97;99645.30;1730937;80;22002;-58
2022/07/05 04:25:16;;;;;;;7.28;6.17;;;;;;;27.29;48.92;99644.94;1726078;80;21563;-59
2022/07/05 04:27:00;;;;;;;6.03;5.42;;;;;;;27.29;48.77;99642.24;1728996;80;21393;-58
2022/07/05 04:29:28;;;;;;;6.45;5.70;;;;;;;27.31;48.83;99642.08;1690909;83;21444;-59
2022/07/05 04:31:55;;;;;;;7.03;5.50;;;;;;;27.19;49.26;99642.41;1726550;80;21532;-59
2022/07/05 04:34:23;;;;;;;6.97;6.17;;;;;;;27.21;49.53;99643.59;1691829;82;21581;-59
2022/07/05 04:36:51;;;;;;;11.78;6.42;;;;;;;27.28;49.62;99644.63;1722819;80;21435;-59
2022/07/05 04:39:20;;;;;;;6.83;5.53;;;;;;;27.35;49.39;99637.52;1717359;80;21068;-59
2022/07/05 04:41:48;;;;;;;6.25;5.67;;;;;;;27.57;49.06;99639.94;1731555;80;21498;-60
2022/07/05 04:44:15;;;;;;;;;;;;;;;27.72;48.38;99637.85;1711201;82;21125;-59
2022/07/05 04:46:42;;;;;;;6.75;5.85;;;;;;;27.87;48.08;99635.24;1689647;83;21777;-59
2022/07/05 04:49:09;;;;;;;6.50;5.70;;;;;;;27.85;48.01;99625.96;1691624;83;21122;-59
2022/07/05 04:51:36;;;;;;;6.42;5.83;;;;;;;27.96;47.94;99627.45;1683202;83;21542;-59
2022/07/05 04:54:04;;;;;;;11.05;5.87;;;;;;;27.94;48.07;99634.38;1682321;83;21074;-61
2022/07/05 04:56:30;;;;;;;9.13;5.75;;;;;;;28.25;47.93;99635.35;1706203;82;21415;-60
2022/07/05 04:58:57;;;;;;;10.38;5.70;;;;;;;28.42;47.56;99638.77;1683934;83;21530;-59
2022/07/05 05:01:24;;;;;;;9.10;5.37;;;;;;;28.49;47.52;99637.86;1676602;83;21500;-60
2022/07/05 05:03:51;;;;;;;11.53;5.83;;;;;;;28.59;47.45;99634.93;1680119;83;21607;-61
2022/07/05 05:06:18;;;;;;;8.83;5.17;;;;;;;28.54;47.30;99636.84;1712186;82;21557;-59
2022/07/05 05:08:45;;;;;;;8.68;5.78;;;;;;;28.68;46.81;99631.65;1685156;83;21424;-59
2022/07/05 05:11:11;;;;;;;6.45;5.58;;;;;;;28.84;46.39;99634.20;1702939;83;21901;-61
2022/07/05 05:13:38;;;;;;;8.65;5.83;;;;;;;28.79;46.57;99631.72;1677067;83;21018;-61
2022/07/05 05:16:06;;;;;;;9.45;5.78;;;;;;;28.91;46.64;99635.16;1688895;84;21126;-61
2022/07/05 05:18:34;;;;;;;6.47;5.47;;;;;;;29.10;46.08;99639.67;1680977;84;21567;-58
2022/07/05 05:21:02;;;;;;;8.20;5.80;;;;;;;29.21;45.63;99638.41;1687741;84;21440;-58
2022/07/05 05:23:29;;;;;;;5.60;5.10;;;;;;;29.17;45.62;99638.45;1688195;83;21877;-60
2022/07/05 05:25:55;;;;;;;6.78;5.78;;;;;;;29.21;45.66;99636.53;1692236;83;21551;-60
2022/07/05 05:28:22;;;;;;;6.30;5.70;;;;;;;29.10;45.47;99644.59;1695648;82;21621;-60
2022/07/05 05:30:48;;;;;;;6.10;5.60;;;;;;;29.15;45.38;99645.92;1697652;83;21484;-60
2022/07/05 05:33:17;;;;;;;10.15;5.87;;;;;;;29.35;45.19;99643.48;1693032;82;21598;-60
2022/07/05 05:35:43;;;;;;;6.77;5.20;;;;;;;29.34;45.35;99643.17;1692181;83;21930;-60
2022/07/05 05:38:11;;;;;;;5.90;4.92;;;;;;;29.64;44.84;99646.16;1693863;83;21133;-59
2022/07/05 05:40:40;;;;;;;7.70;6.10;;;;;;;29.76;44.79;99645.21;1695536;83;21519;-60
2022/07/05 05:43:07;;;;;;;7.92;5.33;;;;;;;29.89;44.71;99653.98;1671184;82;21560;-59
2022/07/05 05:45:34;;;;;;;6.97;5.30;;;;;;;29.88;44.89;99647.73;1680202;83;21520;-59
2022/07/05 05:48:00;;;;;;;7.10;5.37;;;;;;;29.91;45.21;99652.44;1675868;83;21816;-59
2022/07/05 05:50:31;;;;;;;6.58;5.40;;;;;;;29.94;45.28;99650.72;1681631;84;20951;-59
2022/07/05 05:52:58;;;;;;;6.67;5.67;;;;;;;30.15;45.17;99644.47;1659310;84;21430;-59
2022/07/05 05:55:26;;;;;;;8.70;6.00;;;;;;;30.22;45.83;99647.58;1717875;82;21570;-59
2022/07/05 05:57:53;;;;;;;8.13;4.97;;;;;;;30.40;45.92;99646.30;1723702;81;21424;-59
2022/07/05 06:00:20;;;;;;;;;;;;;;;30.42;45.77;99646.45;1736526;80;21815;-59
2022/07/05 06:02:48;;;;;;;6.95;5.67;;;;;;;30.52;45.34;99642.57;1718225;82;20424;-59
2022/07/05 06:05:16;;;;;;;6.90;5.30;;;;;;;30.60;45.22;99643.77;1681560;84;21522;-59
2022/07/05 06:07:50;;;;;;;5.55;4.87;;;;;;;30.69;45.06;99644.48;1729458;81;21038;-59
2022/07/05 06:10:24;;;;;;;10.45;4.90;;;;;;;30.72;44.69;99640.00;1728674;80;21034;-59
2022/07/05 06:12:52;;;;;;;8.43;5.45;;;;;;;30.83;44.16;99638.94;1684735;82;21767;-60
2022/07/05 06:15:19;;;;;;;5.62;5.08;;;;;;;30.86;43.57;99641.27;1722934;80;21536;-61
2022/07/05 06:17:46;;;;;;;5.95;5.35;;;;;;;30.89;43.26;99638.66;1727830;80;21557;-60
2022/07/05 06:20:17;;;;;;;6.70;5.20;;;;;;;30.95;43.41;99640.64;1667684;83;21534;-60
2022/07/05 06:22:44;;;;;;;5.80;5.20;;;;;;;31.05;43.31;99641.63;1728839;80;20994;-61
2022/07/05 06:25:11;;;;;;;5.80;4.95;;;;;;;31.15;43.03;99638.56;1732297;80;22012;-60
2022/07/05 06:27:43;;;;;;;6.42;4.80;;;;;;;31.21;42.86;99637.75;1695117;84;21444;-60
2022/07/05 06:30:14;;;;;;;7.20;4.95;;;;;;;31.24;42.94;99630.05;1731422;80;20942;-61
2022/07/05 06:32:43;;;;;;;6.25;5.40;;;;;;;31.37;42.53;99629.28;1683415;83;21526;-61
2022/07/05 06:35:10;;;;;;;5.62;5.03;;;;;;;31.42;42.60;99630.88;1732006;82;21604;-61
2022/07/05 06:37:54;;;;;;;5.37;4.87;;;;;;;31.65;42.42;99627.53;1728502;80;22346;-60
2022/07/05 06:40:30;;;;;;;6.33;5.72;;;;;;;31.71;41.87;99624.85;1727276;80;21002;-60
2022/07/05 06:42:59;;;;;;;6.87;5.30;;;;;;;31.69;42.35;99632.38;1727468;80;20958;-61
2022/07/05 06:45:27;;;;;;;6.40;5.10;;;;;;;31.85;42.06;99627.61;1740567;80;21511;-61
2022/07/05 06:48:01;;;;;;;8.93;5.62;;;;;;;31.97;41.96;99633.61;1744319;80;21006;-60
2022/07/05 06:50:30;;;;;;;6.35;4.83;;;;;;;32.03;41.65;99632.52;1706935;83;21803;-59
2022/07/05 06:52:57;;;;;;;7.12;4.78;;;;;;;32.06;41.40;99630.22;1678626;84;21445;-60
2022/07/05 06:56:23;;;;;;;6.28;5.15;;;;;;;30.82;45.00;99631.84;1778070;78;23151;-58
2022/07/05 06:58:49;;;;;;;7.47;5.42;;;;;;;31.93;42.25;99626.91;1740189;80;21542;-59
2022/07/05 07:01:17;;;;;;;;;;;;;;;32.04;41.91;99631.45;1735486;80;21904;-60
2022/07/05 07:03:43;;;;;;;6.53;4.92;;;;;;;32.08;41.10;99631.34;1739620;80;20199;-59
2022/07/05 07:06:10;;;;;;;6.08;5.08;;;;;;;32.02;41.67;99633.02;1745856;79;20994;-59
2022/07/05 07:11:24;;;;;;;5.65;5.05;;;;;;;32.14;40.98;99630.02;1737808;80;21407;-60
2022/07/05 07:13:52;;;;;;;5.08;4.62;;;;;;;32.21;40.93;99628.65;1737337;80;21557;-60
2022/07/05 07:16:18;;;;;;;6.17;5.47;;;;;;;32.20;40.71;99632.43;1743727;80;21644;-59
2022/07/05 07:18:45;;;;;;;6.00;5.33;;;;;;;32.31;40.59;99631.81;1734524;80;20978;-60
2022/07/05 07:21:12;;;;;;;5.10;4.70;;;;;;;32.38;40.64;99629.95;1750538;79;21582;-60
2022/07/05 07:23:39;;;;;;;5.05;4.58;;;;;;;32.46;40.53;99626.17;1745175;80;21416;-60
2022/07/05 07:26:06;;;;;;;5.90;5.30;;;;;;;32.56;40.41;99623.03;1700087;81;21832;-60
2022/07/05 07:28:33;;;;;;;5.83;4.40;;;;;;;32.75;39.96;99610.48;1696283;83;20969;-59
2022/07/05 07:31:00;;;;;;;7.40;4.47;;;;;;;32.78;39.47;99616.35;1691670;83;21565;-60
2022/07/05 07:33:27;;;;;;;5.03;4.30;;;;;;;32.96;39.39;99622.52;1699335;81;21482;-60
2022/07/05 07:35:54;;;;;;;7.42;4.55;;;;;;;33.21;39.01;99620.50;1702249;83;21530;-60
2022/07/05 07:38:21;;;;;;;4.92;4.42;;;;;;;33.21;38.91;99621.00;1704875;82;21770;-61
2022/07/05 07:40:47;;;;;;;;;;;;;;;33.32;38.48;99617.11;1708612;81;21478;-60
2022/07/05 07:43:14;;;;;;;5.95;4.70;;;;;;;33.36;37.85;99618.34;1691408;83;20480;-60
2022/07/05 07:45:41;;;;;;;7.70;4.75;;;;;;;33.41;38.31;99614.13;1691973;83;21468;-60
2022/07/05 07:48:08;;;;;;;7.72;4.65;;;;;;;33.47;37.97;99618.17;1689284;83;21523;-60
2022/07/05 07:50:35;;;;;;;4.45;4.15;;;;;;;33.58;37.88;99618.56;1695642;83;21842;-60
2022/07/05 07:53:02;;;;;;;6.17;4.55;;;;;;;33.71;37.79;99613.08;1689290;82;21456;-59
2022/07/05 07:55:29;;;;;;;4.80;4.40;;;;;;;33.79;37.16;99610.09;1679458;83;21622;-60
2022/07/05 07:57:55;;;;;;;5.08;4.60;;;;;;;33.92;36.59;99610.02;1702048;82;21597;-60
2022/07/05 08:00:22;;;;;;;5.97;4.15;;;;;;;33.98;36.86;99611.02;1692034;82;21143;-58
2022/07/05 08:02:48;;;;;;;4.87;4.50;;;;;;;34.01;36.86;99609.77;1699270;82;22199;-57
2022/07/05 08:05:16;;;;;;;5.22;4.12;;;;;;;34.10;36.34;99602.46;1689059;83;21008;-58
2022/07/05 08:07:44;;;;;;;6.15;4.05;;;;;;;34.20;35.80;99599.27;1700326;82;21434;-59
2022/07/05 08:10:11;;;;;;;4.50;3.70;;;;;;;34.24;34.87;99597.77;1701594;82;21542;-59
2022/07/05 08:12:38;;;;;;;5.30;3.92;;;;;;;34.33;34.62;99589.61;1705010;82;20989;-61
2022/07/05 08:15:07;;;;;;;5.90;4.47;;;;;;;34.39;34.72;99589.79;1703940;82;21762;-59
2022/07/05 08:17:35;;;;;;;5.42;3.95;;;;;;;34.47;33.97;99588.99;1692859;82;21536;-59
2022/07/05 08:22:48;;;;;;;5.17;4.10;;;;;;;34.55;34.25;99580.19;1664266;84;21103;-60
2022/07/05 08:25:16;;;;;;;5.15;3.90;;;;;;;34.66;34.02;99581.67;1660000;84;21572;-60
2022/07/05 08:27:43;;;;;;;4.53;3.67;;;;;;;34.75;33.42;99580.04;1717138;81;21463;-60
2022/07/05 08:30:11;;;;;;;4.12;3.72;;;;;;;34.75;33.16;99574.58;1734262;80;21466;-58
2022/07/05 08:32:38;;;;;;;6.90;4.28;;;;;;;34.80;33.65;99574.20;1694323;83;21470;-58
2022/07/05 08:35:07;;;;;;;4.80;3.92;;;;;;;34.87;34.00;99575.52;1698600;82;21103;-57
2022/07/05 08:37:36;;;;;;;4.55;4.15;;;;;;;34.94;33.56;99578.98;1667657;84;21504;-58
2022/07/05 08:40:05;;;;;;;3.85;3.50;;;;;;;34.99;33.40;99569.59;1675031;83;21844;-58
2022/07/05 08:42:32;;;;;;;4.97;4.10;;;;;;;34.96;32.93;99577.40;1683373;82;21140;-58
2022/07/05 08:44:59;;;;;;;6.60;4.43;;;;;;;35.00;32.39;99571.78;1697036;82;21054;-60
2022/07/05 08:47:26;;;;;;;5.60;4.53;;;;;;;34.99;32.44;99570.12;1687606;83;21644;-60
2022/07/05 08:49:52;;;;;;;5.53;4.50;;;;;;;35.01;32.85;99574.29;1689779;83;21496;-58
2022/07/05 08:52:19;;;;;;;10.03;4.17;;;;;;;35.03;32.84;99568.06;1690300;82;21886;-58
2022/07/05 08:54:46;;;;;;;4.97;4.47;;;;;;;35.06;33.53;99568.98;1690180;82;21558;-59
2022/07/05 08:57:13;;;;;;;6.58;4.37;;;;;;;35.20;33.38;99568.86;1688990;82;21641;-58
2022/07/05 08:59:39;;;;;;;7.77;4.20;;;;;;;35.35;33.21;99563.00;1694291;82;21440;-62
2022/07/05 09:02:10;;;;;;;6.97;4.65;;;;;;;35.38;32.98;99569.39;1693917;82;21582;-59
2022/07/05 09:04:37;;;;;;;5.53;4.42;;;;;;;35.47;32.90;99564.73;1692063;82;21507;-59
2022/07/05 09:07:07;;;;;;;4.70;4.30;;;;;;;35.56;33.09;99569.87;1681666;82;21599;-58
2022/07/05 09:09:34;;;;;;;4.00;3.70;;;;;;;35.62;33.20;99564.33;1684212;83;21503;-59
2022/07/05 09:12:00;;;;;;;4.20;3.87;;;;;;;35.69;32.17;99564.79;1693946;82;21587;-60
2022/07/05 09:14:28;;;;;;;8.23;3.98;;;;;;;35.84;31.51;99566.02;1699077;82;21551;-58
2022/07/05 09:16:55;;;;;;;4.28;3.75;;;;;;;35.96;31.33;99572.05;1695651;82;21941;-58
2022/07/05 09:19:22;;;;;;;5.72;3.90;;;;;;;36.00;31.32;99573.28;1686646;82;20962;-58
2022/07/05 09:21:48;;;;;;;4.30;4.00;;;;;;;36.05;31.20;99566.55;1694947;82;21113;-59
2022/07/05 09:24:14;;;;;;;5.65;3.75;;;;;;;36.04;31.05;99567.09;1640178;83;21076;-57
2022/07/05 09:26:45;;;;;;;5.03;3.83;;;;;;;36.03;30.63;99570.05;1694536;82;20948;-58
2022/07/05 09:29:18;;;;;;;7.37;3.72;;;;;;;36.02;31.03;99566.49;1680330;82;21829;-57
2022/07/05 09:31:50;;;;;;;7.53;3.83;;;;;;;35.98;30.96;99574.87;1691383;82;21575;-58
2022/07/05 09:34:18;;;;;;;6.33;3.87;;;;;;;35.95;30.50;99571.23;1696028;82;21520;-58
2022/07/05 09:37:01;;;;;;;3.75;3.45;;;;;;;35.92;29.62;99574.96;1685003;82;21619;-58
2022/07/05 09:39:36;;;;;;;8.20;3.77;;;;;;;36.06;29.52;99573.70;1692742;82;21551;-62
2022/07/05 09:42:22;;;;;;;4.35;3.45;;;;;;;36.17;28.78;99563.86;1684033;82;21776;-60
2022/07/05 09:44:56;;;;;;;4.75;3.65;;;;;;;36.19;27.58;99574.88;1690928;82;21563;-59
2022/07/05 09:47:29;;;;;;;3.58;3.33;;;;;;;36.10;26.71;99572.70;1682261;82;21476;-60
2022/07/05 09:50:19;;;;;;;4.67;3.70;;;;;;;36.08;26.19;99575.66;1696239;82;21035;-60
2022/07/05 09:52:48;;;;;;;6.10;4.45;;;;;;;36.14;26.61;99567.88;1588796;88;21759;-60
2022/07/05 09:55:19;;;;;;;4.33;3.93;;;;;;;36.22;27.01;99568.95;1596303;89;21690;-60
2022/07/05 09:57:47;;;;;;;6.20;4.28;;;;;;;36.33;28.28;99567.28;1585590;87;21572;-58
2022/07/05 10:00:19;;;;;;;5.00;4.10;;;;;;;36.44;28.44;99565.08;1586877;89;21565;-58
2022/07/05 10:02:48;;;;;;;5.28;3.60;;;;;;;36.50;28.30;99564.67;1586725;87;21523;-59
2022/07/05 10:05:23;;;;;;;4.30;3.87;;;;;;;36.52;27.16;99564.44;1590682;89;21614;-61
2022/07/05 10:07:55;;;;;;;4.12;3.75;;;;;;;36.61;27.32;99566.58;1598989;87;21821;-59
2022/07/05 10:10:31;;;;;;;5.45;3.98;;;;;;;36.76;27.37;99562.02;1590127;88;21463;-59
2022/07/05 10:13:00;;;;;;;3.95;3.45;;;;;;;36.80;27.13;99561.00;1584580;89;21682;-59
2022/07/05 10:15:32;;;;;;;5.58;4.45;;;;;;;36.83;26.63;99558.63;1582836;88;21470;-59
2022/07/05 10:18:12;;;;;;;4.62;4.12;;;;;;;36.80;26.58;99554.98;1626479;86;21068;-60
2022/07/05 10:20:44;;;;;;;6.15;4.97;;;;;;;36.82;26.79;99552.83;1630551;86;21831;-61
2022/07/05 10:23:15;;;;;;;6.45;3.60;;;;;;;36.82;27.23;99545.98;1624640;85;21486;-59
2022/07/05 10:25:44;;;;;;;4.85;4.40;;;;;;;36.91;26.81;99553.85;1636322;85;21466;-59
2022/07/05 10:28:11;;;;;;;4.60;4.20;;;;;;;36.89;26.59;99546.41;1631380;86;21556;-59
2022/07/05 10:30:38;;;;;;;6.92;3.75;;;;;;;36.96;26.17;99549.31;1631068;86;21059;-59
2022/07/05 10:33:07;;;;;;;7.42;3.92;;;;;;;37.00;25.97;99553.23;1629701;85;21780;-60
2022/07/05 10:35:35;;;;;;;4.10;3.75;;;;;;;37.06;25.89;99548.70;1633845;85;21605;-60
2022/07/05 10:38:02;;;;;;;4.35;3.95;;;;;;;37.15;25.87;99547.27;1633601;85;21065;-61
2022/07/05 10:40:31;;;;;;;4.28;3.90;;;;;;;37.27;25.94;99540.38;1632052;86;21617;-61
2022/07/05 10:43:23;;;;;;;4.83;3.80;;;;;;;37.30;25.88;99541.27;1630926;86;21111;-61
2022/07/05 10:45:51;;;;;;;9.63;4.03;;;;;;;37.30;24.96;99532.19;1623722;86;22061;-60
2022/07/05 10:48:24;;;;;;;4.10;3.67;;;;;;;37.25;25.00;99526.63;1625702;86;21549;-60
2022/07/05 10:51:14;;;;;;;4.00;3.70;;;;;;;37.32;25.35;99531.44;1625396;86;21547;-59
2022/07/05 10:53:47;;;;;;;4.10;3.80;;;;;;;37.40;24.75;99533.78;1619405;86;21631;-60
2022/07/05 10:56:14;;;;;;;6.30;3.83;;;;;;;37.32;24.37;99521.84;1622901;86;21453;-63
2022/07/05 10:58:45;;;;;;;3.95;3.60;;;;;;;37.27;25.36;99528.05;1623938;87;21795;-60
2022/07/05 11:01:26;;;;;;;4.37;3.98;;;;;;;37.35;25.87;99529.02;1621962;86;21583;-61
2022/07/05 11:04:05;;;;;;;6.95;3.80;;;;;;;37.42;24.76;99522.03;1620891;86;21560;-59
2022/07/05 11:06:42;;;;;;;5.22;3.65;;;;;;;37.47;24.99;99522.13;1621183;87;21528;-61
2022/07/05 11:09:16;;;;;;;3.62;3.40;;;;;;;37.43;25.72;99520.11;1619836;87;21559;-61
2022/07/05 11:12:02;;;;;;;9.13;4.00;;;;;;;37.49;25.89;99520.52;1613118;87;21893;-60
2022/07/05 11:14:31;;;;;;;4.75;3.80;;;;;;;37.45;25.46;99498.25;1610537;87;21429;-60
2022/07/05 11:17:22;;;;;;;5.53;4.22;;;;;;;37.62;25.28;99516.66;1609114;87;21429;-60
2022/07/05 11:20:11;;;;;;;5.83;3.92;;;;;;;37.63;25.15;99515.59;1619795;84;21572;-60
2022/07/05 11:23:03;;;;;;;4.80;4.28;;;;;;;37.65;24.70;99517.55;1613922;87;21466;-60
2022/07/05 11:25:32;;;;;;;5.22;3.77;;;;;;;37.65;24.80;99513.42;1616027;86;21996;-60
2022/07/05 11:28:23;;;;;;;4.42;3.90;;;;;;;37.59;24.96;99513.30;1611246;87;21565;-61
2022/07/05 11:31:08;;;;;;;4.25;3.85;;;;;;;37.63;24.92;99507.36;1544944;85;21639;-62
2022/07/05 11:33:44;;;;;;;4.40;3.80;;;;;;;37.66;25.14;99507.70;1630206;85;21618;-61
2022/07/05 11:36:28;;;;;;;4.83;3.60;;;;;;;37.59;24.15;99506.98;1635924;85;21436;-63
2022/07/05 11:39:17;;;;;;;6.90;3.87;;;;;;;37.47;23.56;99503.45;1638151;84;21733;-63
2022/07/05 11:41:45;;;;;;;6.22;4.30;;;;;;;37.48;24.13;99503.22;1633955;85;21655;-64
2022/07/05 11:44:12;;;;;;;7.72;4.33;;;;;;;37.64;24.28;99508.49;1623971;85;21587;-63
2022/07/05 11:46:41;;;;;;;;;;;;;;;37.68;24.14;99503.34;1622506;86;21522;-65
2022/07/05 11:49:08;;;;;;;4.33;3.87;;;;;;;37.75;24.71;99506.22;1626878;86;20440;-63